Time;durP1;ratioP1;P1;durP2;ratioP2;P2;SDS_P1;SDS_P2;PMS_P1;PMS_P2;Temp;Humidity;BMP_temperature;BMP_pressure;BME280_temperature;BME280_humidity;BME280_pressure;Samples;Min_cycle;Max_cycle;Signal;HPM_P1;HPM_P2
2023/11/13 00:01:20;;;;;;;;;;;;;;;;;;4936567;28;20423;-68
2023/11/13 00:03:46;;;;;;;;;;;;;;;;;;4957410;28;20791;-69
2023/11/13 00:06:13;;;;;;;;;;;;;;;;;;4939699;28;19918;-68
2023/11/13 00:08:39;;;;;;;;;;;;;;;;;;4956227;28;19922;-68
2023/11/13 00:11:05;;;;;;;;;;;;;;;;;;4961263;28;19924;-68
2023/11/13 00:13:31;;;;;;;;;;;;;;;;;;4939120;28;20056;-69
2023/11/13 00:15:57;;;;;;;;;;;;;;;;;;4960196;28;19968;-67
2023/11/13 00:18:25;;;;;;;;;;;;;;;;;;4939074;28;20736;-69
2023/11/13 00:20:51;;;;;;;;;;;;;;;;;;4939060;28;20040;-67
2023/11/13 00:23:17;;;;;;;;;;;;;;;;;;4952158;28;20308;-68
2023/11/13 00:25:43;;;;;;;;;;;;;;;;;;4939477;28;19920;-67
2023/11/13 00:28:09;;;;;;;;;;;;;;;;;;4941708;28;19996;-69
2023/11/13 00:30:36;;;;;;;;;;;;;;;;;;4954178;28;19953;-69
2023/11/13 00:33:02;;;;;;;;;;;;;;;;;;4939387;28;21037;-68
2023/11/13 00:35:28;;;;;;;;;;;;;;;;;;4938898;28;19975;-68
2023/11/13 00:37:57;;;;;;;;;;;;;;;;;;4942991;28;19977;-67
2023/11/13 00:40:24;;;;;;;;;;;;;;;;;;4940922;28;19929;-68
2023/11/13 00:42:50;;;;;;;;;;;;;;;;;;4956872;28;19961;-67
2023/11/13 00:45:15;;;;;;;;;;;;;;;;;;4956195;28;20404;-67
2023/11/13 00:47:41;;;;;;;;;;;;;;;;;;4938747;28;20005;-69
2023/11/13 00:50:10;;;;;;;;;;;;;;;;;;4957396;28;20388;-68
2023/11/13 00:52:36;;;;;;;;;;;;;;;;;;4961569;28;20041;-68
2023/11/13 00:55:04;;;;;;;;;;;;;;;;;;4953659;28;19913;-68
2023/11/13 00:57:30;;;;;;;;;;;;;;;;;;4937684;28;20034;-68
2023/11/13 00:59:56;;;;;;;;;;;;;;;;;;4959088;28;20042;-68
2023/11/13 01:02:23;;;;;;;;;;;;;;;;;;4941457;28;19921;-68
2023/11/13 01:04:49;;;;;;;;;;;;;;;;;;4957283;28;20234;-70
2023/11/13 01:07:18;;;;;;;;;;;;;;;;;;4956329;28;19920;-68
2023/11/13 01:09:45;;;;;;;;;;;;;;;;;;4955901;28;19926;-68
2023/11/13 01:12:11;;;;;;;;;;;;;;;;;;4952263;28;20379;-69
2023/11/13 01:14:37;;;;;;;;;;;;;;;;;;4957981;28;20451;-70
2023/11/13 01:17:03;;;;;;;;;;;;;;;;;;4957293;28;19918;-69
2023/11/13 01:19:30;;;;;;;;;;;;;;;;;;4954262;28;19914;-70
2023/11/13 01:21:56;;;;;;;;;;;;;;;;;;4940946;28;19926;-70
2023/11/13 01:24:22;;;;;;;;;;;;;;;;;;4955590;28;20215;-70
2023/11/13 01:26:49;;;;;;;;;;;;;;;;;;4943160;28;20158;-70
2023/11/13 01:29:15;;;;;;;;;;;;;;;;;;4951636;28;19926;-70
2023/11/13 01:31:41;;;;;;;;;;;;;;;;;;4960260;28;20361;-69
2023/11/13 01:34:12;;;;;;;;;;;;;;;;;;4961513;28;19937;-70
2023/11/13 01:36:38;;;;;;;;;;;;;;;;;;4943350;28;19918;-70
2023/11/13 01:39:04;;;;;;;;;;;;;;;;;;4957744;28;20174;-70
2023/11/13 01:41:30;;;;;;;;;;;;;;;;;;4955618;28;19982;-70
2023/11/13 01:43:56;;;;;;;;;;;;;;;;;;4956330;28;20497;-70
2023/11/13 01:46:22;;;;;;;;;;;;;;;;;;4953383;28;20644;-70
2023/11/13 01:48:48;;;;;;;;;;;;;;;;;;4955880;28;20454;-69
2023/11/13 01:51:14;;;;;;;;;;;;;;;;;;4953971;28;20416;-69
2023/11/13 01:53:40;;;;;;;;;;;;;;;;;;4957089;28;19921;-70
2023/11/13 01:56:06;;;;;;;;;;;;;;;;;;4941431;28;19926;-72
2023/11/13 01:58:32;;;;;;;;;;;;;;;;;;4939123;28;19977;-68
2023/11/13 02:00:58;;;;;;;;;;;;;;;;;;4942054;28;20424;-69
2023/11/13 02:03:24;;;;;;;;;;;;;;;;;;4932548;28;19913;-69
2023/11/13 02:05:51;;;;;;;;;;;;;;;;;;4956933;28;20662;-69
2023/11/13 02:08:19;;;;;;;;;;;;;;;;;;4956664;28;20340;-69
2023/11/13 02:10:45;;;;;;;;;;;;;;;;;;4953613;28;20028;-69
2023/11/13 02:13:11;;;;;;;;;;;;;;;;;;4954301;28;20252;-70
2023/11/13 02:15:38;;;;;;;;;;;;;;;;;;4955952;28;19997;-67
2023/11/13 02:18:04;;;;;;;;;;;;;;;;;;4954407;28;19913;-67
2023/11/13 02:20:30;;;;;;;;;;;;;;;;;;4954074;28;19960;-69
2023/11/13 02:22:56;;;;;;;;;;;;;;;;;;4955061;28;19932;-67
2023/11/13 02:25:22;;;;;;;;;;;;;;;;;;4955040;28;20339;-69
2023/11/13 02:27:48;;;;;;;;;;;;;;;;;;4955704;28;20430;-70
2023/11/13 02:30:14;;;;;;;;;;;;;;;;;;4935732;28;20001;-70
2023/11/13 02:32:40;;;;;;;;;;;;;;;;;;4956778;28;19914;-70
2023/11/13 02:35:06;;;;;;;;;;;;;;;;;;4956040;28;20226;-70
2023/11/13 02:37:32;;;;;;;;;;;;;;;;;;4959014;28;19921;-70
2023/11/13 02:39:57;;;;;;;;;;;;;;;;;;4956183;28;20102;-69
2023/11/13 02:42:23;;;;;;;;;;;;;;;;;;4956476;28;19914;-67
2023/11/13 02:44:49;;;;;;;;;;;;;;;;;;4955501;28;20442;-69
2023/11/13 02:47:16;;;;;;;;;;;;;;;;;;4954877;28;19975;-68
2023/11/13 02:49:42;;;;;;;;;;;;;;;;;;4954964;28;19928;-69
2023/11/13 02:52:08;;;;;;;;;;;;;;;;;;4956926;28;19918;-69
2023/11/13 02:54:33;;;;;;;;;;;;;;;;;;4953888;28;19921;-67
2023/11/13 02:57:00;;;;;;;;;;;;;;;;;;4956647;28;20481;-68
2023/11/13 02:59:26;;;;;;;;;;;;;;;;;;4954122;28;19964;-67
2023/11/13 03:01:52;;;;;;;;;;;;;;;;;;4937562;28;20009;-70
2023/11/13 03:04:18;;;;;;;;;;;;;;;;;;4953759;28;20028;-68
2023/11/13 03:06:44;;;;;;;;;;;;;;;;;;4954929;28;20005;-69
2023/11/13 03:09:10;;;;;;;;;;;;;;;;;;4952793;28;20012;-69
2023/11/13 03:11:37;;;;;;;;;;;;;;;;;;4955031;28;19917;-69
2023/11/13 03:14:04;;;;;;;;;;;;;;;;;;4941949;28;20435;-69
2023/11/13 03:16:30;;;;;;;;;;;;;;;;;;4949638;28;21214;-69
2023/11/13 03:18:56;;;;;;;;;;;;;;;;;;4956352;28;20702;-70
2023/11/13 03:21:23;;;;;;;;;;;;;;;;;;4956143;28;19917;-70
2023/11/13 03:23:49;;;;;;;;;;;;;;;;;;4943814;28;19972;-70
2023/11/13 03:26:15;;;;;;;;;;;;;;;;;;4953008;28;20040;-68
2023/11/13 03:28:41;;;;;;;;;;;;;;;;;;4958579;28;19914;-69
2023/11/13 03:31:07;;;;;;;;;;;;;;;;;;4957334;28;19921;-69
2023/11/13 03:33:33;;;;;;;;;;;;;;;;;;4954848;28;20406;-69
2023/11/13 03:35:59;;;;;;;;;;;;;;;;;;4939959;28;20176;-69
2023/11/13 03:38:25;;;;;;;;;;;;;;;;;;4937105;28;20507;-69
2023/11/13 03:40:51;;;;;;;;;;;;;;;;;;4958379;28;20424;-68
2023/11/13 03:43:17;;;;;;;;;;;;;;;;;;4958669;28;19957;-70
2023/11/13 03:45:43;;;;;;;;;;;;;;;;;;4956369;28;20108;-69
2023/11/13 03:48:09;;;;;;;;;;;;;;;;;;4958364;28;19921;-69
2023/11/13 03:50:35;;;;;;;;;;;;;;;;;;4937585;28;19918;-69
2023/11/13 03:53:01;;;;;;;;;;;;;;;;;;4957981;28;20245;-69
2023/11/13 03:55:27;;;;;;;;;;;;;;;;;;4954816;28;20092;-69
2023/11/13 03:57:53;;;;;;;;;;;;;;;;;;4937994;28;19914;-69
2023/11/13 04:00:19;;;;;;;;;;;;;;;;;;4957206;28;20470;-69
2023/11/13 04:02:45;;;;;;;;;;;;;;;;;;4941005;28;19921;-68
2023/11/13 04:05:12;;;;;;;;;;;;;;;;;;4953183;28;19913;-69
2023/11/13 04:07:37;;;;;;;;;;;;;;;;;;4955488;28;19976;-69
2023/11/13 04:10:03;;;;;;;;;;;;;;;;;;4959634;28;19929;-69
2023/11/13 04:12:29;;;;;;;;;;;;;;;;;;4954172;28;21197;-69
2023/11/13 04:14:55;;;;;;;;;;;;;;;;;;4955836;28;19914;-69
2023/11/13 04:17:21;;;;;;;;;;;;;;;;;;4956490;28;20367;-69
2023/11/13 04:19:47;;;;;;;;;;;;;;;;;;4942264;28;19921;-69
2023/11/13 04:22:13;;;;;;;;;;;;;;;;;;4955252;28;19924;-69
2023/11/13 04:24:39;;;;;;;;;;;;;;;;;;4956811;28;19914;-69
2023/11/13 04:27:06;;;;;;;;;;;;;;;;;;4960097;28;19924;-69
2023/11/13 04:29:32;;;;;;;;;;;;;;;;;;4949742;28;20328;-69
2023/11/13 04:31:58;;;;;;;;;;;;;;;;;;4958974;28;20455;-68
2023/11/13 04:34:24;;;;;;;;;;;;;;;;;;4960804;28;19914;-69
2023/11/13 04:36:50;;;;;;;;;;;;;;;;;;4943445;28;20376;-69
2023/11/13 04:39:16;;;;;;;;;;;;;;;;;;4954028;28;19922;-70
2023/11/13 04:41:43;;;;;;;;;;;;;;;;;;4958112;28;20447;-69
2023/11/13 04:44:09;;;;;;;;;;;;;;;;;;4962941;28;19914;-69
2023/11/13 04:46:35;;;;;;;;;;;;;;;;;;4942781;28;19922;-69
2023/11/13 04:49:01;;;;;;;;;;;;;;;;;;4958257;28;20193;-69
2023/11/13 04:51:27;;;;;;;;;;;;;;;;;;4958301;28;20356;-70
2023/11/13 04:53:53;;;;;;;;;;;;;;;;;;4958771;28;20369;-70
2023/11/13 04:56:19;;;;;;;;;;;;;;;;;;4937672;28;20631;-70
2023/11/13 04:58:45;;;;;;;;;;;;;;;;;;4957588;28;20219;-69
2023/11/13 05:01:11;;;;;;;;;;;;;;;;;;4942334;28;19921;-70
2023/11/13 05:03:37;;;;;;;;;;;;;;;;;;4953259;28;20199;-70
2023/11/13 05:06:02;;;;;;;;;;;;;;;;;;4960446;28;19944;-69
2023/11/13 05:08:29;;;;;;;;;;;;;;;;;;4956029;28;20450;-69
2023/11/13 05:10:55;;;;;;;;;;;;;;;;;;4960587;28;19926;-69
2023/11/13 05:13:21;;;;;;;;;;;;;;;;;;4944560;28;20171;-68
2023/11/13 05:15:47;;;;;;;;;;;;;;;;;;4960714;28;20281;-68
2023/11/13 05:18:13;;;;;;;;;;;;;;;;;;4957240;28;20440;-69
2023/11/13 05:20:47;;;;;;;;;;;;;;;;;;4960311;28;20257;-68
2023/11/13 05:23:13;;;;;;;;;;;;;;;;;;4957239;28;19989;-68
2023/11/13 05:25:39;;;;;;;;;;;;;;;;;;4962402;28;19913;-71
2023/11/13 05:28:07;;;;;;;;;;;;;;;;;;4957323;28;19914;-69
2023/11/13 05:30:32;;;;;;;;;;;;;;;;;;4958946;28;20226;-69
2023/11/13 05:32:59;;;;;;;;;;;;;;;;;;4942666;28;19992;-70
2023/11/13 05:35:25;;;;;;;;;;;;;;;;;;4957909;28;20297;-70
2023/11/13 05:37:50;;;;;;;;;;;;;;;;;;4956999;28;19914;-70
2023/11/13 05:40:17;;;;;;;;;;;;;;;;;;4940265;28;19924;-70
2023/11/13 05:42:43;;;;;;;;;;;;;;;;;;4958178;28;19960;-70
2023/11/13 05:45:09;;;;;;;;;;;;;;;;;;4958722;28;20032;-69
2023/11/13 05:47:35;;;;;;;;;;;;;;;;;;4947265;28;19925;-70
2023/11/13 05:50:02;;;;;;;;;;;;;;;;;;4941094;28;19930;-69
2023/11/13 05:52:29;;;;;;;;;;;;;;;;;;4955582;28;20656;-68
2023/11/13 05:54:55;;;;;;;;;;;;;;;;;;4939901;28;20040;-68
2023/11/13 05:57:21;;;;;;;;;;;;;;;;;;4953351;28;20019;-69
2023/11/13 05:59:47;;;;;;;;;;;;;;;;;;4940867;28;20361;-69
2023/11/13 06:02:13;;;;;;;;;;;;;;;;;;4951590;28;19945;-69
2023/11/13 06:04:40;;;;;;;;;;;;;;;;;;4941251;28;20205;-68
2023/11/13 06:07:06;;;;;;;;;;;;;;;;;;4956812;28;20148;-70
2023/11/13 06:09:32;;;;;;;;;;;;;;;;;;4935385;28;19953;-70
2023/11/13 06:11:58;;;;;;;;;;;;;;;;;;4956702;28;20366;-68
2023/11/13 06:14:24;;;;;;;;;;;;;;;;;;4956002;28;19921;-70
2023/11/13 06:16:50;;;;;;;;;;;;;;;;;;4942509;28;20405;-69
2023/11/13 06:19:17;;;;;;;;;;;;;;;;;;4952902;28;19910;-69
2023/11/13 06:21:51;;;;;;;;;;;;;;;;;;5044387;28;19921;-70
2023/11/13 06:24:17;;;;;;;;;;;;;;;;;;5036419;28;20006;-70
2023/11/13 06:26:43;;;;;;;;;;;;;;;;;;5026551;28;19947;-70
2023/11/13 06:29:10;;;;;;;;;;;;;;;;;;5026010;28;20358;-71
2023/11/13 06:31:36;;;;;;;;;;;;;;;;;;5024354;28;19924;-70
2023/11/13 06:34:02;;;;;;;;;;;;;;;;;;5025343;28;19916;-70
2023/11/13 06:36:28;;;;;;;;;;;;;;;;;;5021452;28;19920;-69
2023/11/13 06:38:54;;;;;;;;;;;;;;;;;;5026455;28;20345;-69
2023/11/13 06:41:20;;;;;;;;;;;;;;;;;;5019462;28;20563;-69
2023/11/13 06:43:46;;;;;;;;;;;;;;;;;;5021528;28;20245;-71
2023/11/13 06:46:12;;;;;;;;;;;;;;;;;;5018168;28;20328;-71
2023/11/13 06:48:38;;;;;;;;;;;;;;;;;;5027494;28;19921;-70
2023/11/13 06:51:07;;;;;;;;;;;;;;;;;;5038270;28;19927;-69
2023/11/13 06:53:33;;;;;;;;;;;;;;;;;;5023726;28;19952;-70
2023/11/13 06:55:59;;;;;;;;;;;;;;;;;;5022928;28;20319;-72
2023/11/13 06:58:26;;;;;;;;;;;;;;;;;;5018623;28;20019;-71
2023/11/13 07:00:52;;;;;;;;;;;;;;;;;;5016539;28;19928;-69
2023/11/13 07:03:18;;;;;;;;;;;;;;;;;;5013257;28;19917;-69
2023/11/13 07:05:45;;;;;;;;;;;;;;;;;;5015799;28;19913;-70
2023/11/13 07:08:13;;;;;;;;;;;;;;;;;;5010365;28;20254;-70
2023/11/13 07:10:43;;;;;;;;;;;;;;;;;;5021509;28;20345;-69
2023/11/13 07:13:11;;;;;;;;;;;;;;;;;;5020162;28;19925;-69
2023/11/13 07:15:37;;;;;;;;;;;;;;;;;;5038506;28;20047;-71
2023/11/13 07:18:04;;;;;;;;;;;;;;;;;;5022501;28;19944;-70
2023/11/13 07:20:30;;;;;;;;;;;;;;;;;;5020178;28;19933;-70
2023/11/13 07:22:56;;;;;;;;;;;;;;;;;;5017287;28;20666;-71
2023/11/13 07:25:22;;;;;;;;;;;;;;;;;;5016170;28;19921;-70
2023/11/13 07:27:48;;;;;;;;;;;;;;;;;;5021422;28;19917;-70
2023/11/13 07:30:15;;;;;;;;;;;;;;;;;;5013784;28;20289;-70
2023/11/13 07:32:41;;;;;;;;;;;;;;;;;;5009805;28;20271;-69
2023/11/13 07:35:07;;;;;;;;;;;;;;;;;;5005165;28;19932;-69
2023/11/13 07:37:33;;;;;;;;;;;;;;;;;;5001325;28;19962;-69
2023/11/13 07:40:00;;;;;;;;;;;;;;;;;;5007303;28;19921;-68
2023/11/13 07:42:26;;;;;;;;;;;;;;;;;;5011230;28;19917;-70
2023/11/13 07:44:52;;;;;;;;;;;;;;;;;;5007604;28;19947;-70
2023/11/13 07:47:18;;;;;;;;;;;;;;;;;;5009514;28;19920;-71
2023/11/13 07:49:44;;;;;;;;;;;;;;;;;;5025166;28;20065;-70
2023/11/13 07:52:10;;;;;;;;;;;;;;;;;;5003963;28;20027;-70
2023/11/13 07:54:36;;;;;;;;;;;;;;;;;;5008813;28;19918;-70
2023/11/13 07:57:04;;;;;;;;;;;;;;;;;;5005128;28;20370;-69
2023/11/13 07:59:30;;;;;;;;;;;;;;;;;;5003453;28;22142;-69
2023/11/13 08:01:56;;;;;;;;;;;;;;;;;;5006063;28;20497;-69
2023/11/13 08:04:22;;;;;;;;;;;;;;;;;;5003007;28;19917;-69
2023/11/13 08:06:48;;;;;;;;;;;;;;;;;;5019754;28;20366;-69
2023/11/13 08:09:15;;;;;;;;;;;;;;;;;;5001222;28;19943;-67
2023/11/13 08:11:41;;;;;;;;;;;;;;;;;;5006379;28;20448;-68
2023/11/13 08:14:08;;;;;;;;;;;;;;;;;;5015264;28;19917;-68
2023/11/13 08:16:34;;;;;;;;;;;;;;;;;;5021956;28;20564;-69
2023/11/13 08:19:00;;;;;;;;;;;;;;;;;;5009455;28;19921;-69
2023/11/13 08:21:26;;;;;;;;;;;;;;;;;;5000419;28;20132;-69
2023/11/13 08:23:52;;;;;;;;;;;;;;;;;;5001468;28;20012;-69
2023/11/13 08:26:18;;;;;;;;;;;;;;;;;;5011476;28;20215;-68
2023/11/13 08:28:44;;;;;;;;;;;;;;;;;;5004525;28;19922;-67
2023/11/13 08:31:15;;;;;;;;;;;;;;;;;;5004947;28;20322;-69
2023/11/13 08:33:41;;;;;;;;;;;;;;;;;;5008650;28;19956;-69
2023/11/13 08:36:10;;;;;;;;;;;;;;;;;;5002049;28;19916;-68
2023/11/13 08:38:36;;;;;;;;;;;;;;;;;;5008412;28;20295;-70
2023/11/13 08:41:03;;;;;;;;;;;;;;;;;;5009348;28;19921;-68
2023/11/13 08:43:31;;;;;;;;;;;;;;;;;;5003898;28;19956;-70
2023/11/13 08:45:59;;;;;;;;;;;;;;;;;;5006482;28;19956;-68
2023/11/13 08:48:24;;;;;;;;;;;;;;;;;;5001401;28;19962;-68
2023/11/13 08:50:53;;;;;;;;;;;;;;;;;;5004497;28;20792;-71
2023/11/13 08:53:19;;;;;;;;;;;;;;;;;;5001435;28;19916;-70
2023/11/13 08:55:45;;;;;;;;;;;;;;;;;;5005452;28;19944;-70
2023/11/13 08:58:11;;;;;;;;;;;;;;;;;;5003090;28;19916;-70
2023/11/13 09:00:47;;;;;;;;;;;;;;;;;;5002272;28;20406;-70
2023/11/13 09:03:13;;;;;;;;;;;;;;;;;;5001215;28;20033;-70
2023/11/13 09:05:39;;;;;;;;;;;;;;;;;;5007645;28;20379;-69
2023/11/13 09:08:05;;;;;;;;;;;;;;;;;;5004131;28;20147;-70
2023/11/13 09:10:31;;;;;;;;;;;;;;;;;;5000306;28;20305;-70
2023/11/13 09:13:00;;;;;;;;;;;;;;;;;;5008199;28;19928;-69
2023/11/13 09:15:26;;;;;;;;;;;;;;;;;;5019095;28;19920;-71
2023/11/13 09:17:54;;;;;;;;;;;;;;;;;;5007957;28;19917;-71
2023/11/13 09:20:20;;;;;;;;;;;;;;;;;;5016859;28;20153;-70
2023/11/13 09:22:46;;;;;;;;;;;;;;;;;;5008595;28;20415;-70
2023/11/13 09:25:15;;;;;;;;;;;;;;;;;;5003095;28;20095;-69
2023/11/13 09:27:41;;;;;;;;;;;;;;;;;;5007100;28;19916;-69
2023/11/13 09:30:10;;;;;;;;;;;;;;;;;;5006428;28;19968;-68
2023/11/13 09:32:36;;;;;;;;;;;;;;;;;;5003025;28;19925;-70
2023/11/13 09:35:03;;;;;;;;;;;;;;;;;;5016502;28;19924;-69
2023/11/13 09:37:29;;;;;;;;;;;;;;;;;;5000205;28;20230;-69
2023/11/13 09:39:55;;;;;;;;;;;;;;;;;;5004850;28;19928;-68
2023/11/13 09:42:22;;;;;;;;;;;;;;;;;;5004705;28;20040;-71
2023/11/13 09:44:48;;;;;;;;;;;;;;;;;;5005735;28;19913;-70
2023/11/13 09:47:14;;;;;;;;;;;;;;;;;;5006614;28;20291;-69
2023/11/13 09:49:41;;;;;;;;;;;;;;;;;;5016418;28;20150;-69
2023/11/13 09:52:07;;;;;;;;;;;;;;;;;;5005834;28;19924;-69
2023/11/13 09:54:32;;;;;;;;;;;;;;;;;;5000863;28;19917;-69
2023/11/13 09:57:00;;;;;;;;;;;;;;;;;;5006102;28;19917;-69
2023/11/13 09:59:26;;;;;;;;;;;;;;;;;;5008479;28;19924;-69
2023/11/13 10:01:52;;;;;;;;;;;;;;;;;;5007219;28;20248;-68
2023/11/13 10:04:18;;;;;;;;;;;;;;;;;;4998442;28;20483;-69
2023/11/13 10:06:44;;;;;;;;;;;;;;;;;;5004979;28;19917;-68
2023/11/13 10:09:10;;;;;;;;;;;;;;;;;;5000634;28;19921;-69
2023/11/13 10:11:36;;;;;;;;;;;;;;;;;;5002275;28;19926;-70
2023/11/13 10:14:02;;;;;;;;;;;;;;;;;;5017460;28;20027;-70
2023/11/13 10:16:28;;;;;;;;;;;;;;;;;;4999013;28;19960;-69
2023/11/13 10:18:56;;;;;;;;;;;;;;;;;;5002460;28;20027;-69
2023/11/13 10:21:22;;;;;;;;;;;;;;;;;;4999718;28;20298;-68
2023/11/13 10:23:48;;;;;;;;;;;;;;;;;;5007538;28;20252;-70
2023/11/13 10:26:15;;;;;;;;;;;;;;;;;;5018486;28;19921;-70
2023/11/13 10:28:41;;;;;;;;;;;;;;;;;;4998743;28;20087;-68
2023/11/13 10:31:16;;;;;;;;;;;;;;;;;;5000203;28;20477;-67
2023/11/13 10:33:42;;;;;;;;;;;;;;;;;;4999314;28;20359;-69
2023/11/13 10:36:11;;;;;;;;;;;;;;;;;;5005251;28;19920;-68
2023/11/13 10:38:36;;;;;;;;;;;;;;;;;;5000447;28;20153;-68
2023/11/13 10:41:03;;;;;;;;;;;;;;;;;;5003343;28;19921;-70
2023/11/13 10:43:29;;;;;;;;;;;;;;;;;;5007268;28;23058;-68
2023/11/13 10:45:55;;;;;;;;;;;;;;;;;;5002608;28;20447;-70
2023/11/13 10:48:21;;;;;;;;;;;;;;;;;;4999105;28;20343;-68
2023/11/13 10:50:48;;;;;;;;;;;;;;;;;;5003693;28;19924;-68
2023/11/13 10:53:16;;;;;;;;;;;;;;;;;;4996036;28;19921;-68
2023/11/13 10:55:42;;;;;;;;;;;;;;;;;;5003727;28;19920;-68
2023/11/13 10:58:08;;;;;;;;;;;;;;;;;;5005086;28;19917;-69
2023/11/13 11:00:34;;;;;;;;;;;;;;;;;;4999147;28;20085;-68
2023/11/13 11:02:59;;;;;;;;;;;;;;;;;;5004095;28;20290;-69
2023/11/13 11:05:26;;;;;;;;;;;;;;;;;;5011590;28;19951;-69
2023/11/13 11:07:52;;;;;;;;;;;;;;;;;;5001145;28;19925;-70
2023/11/13 11:10:21;;;;;;;;;;;;;;;;;;5002522;28;19923;-69
2023/11/13 11:12:47;;;;;;;;;;;;;;;;;;5003612;28;19932;-69
2023/11/13 11:15:14;;;;;;;;;;;;;;;;;;5002326;28;19917;-69
2023/11/13 11:17:40;;;;;;;;;;;;;;;;;;5006191;28;20002;-67
2023/11/13 11:20:07;;;;;;;;;;;;;;;;;;5007358;28;20234;-68
2023/11/13 11:22:33;;;;;;;;;;;;;;;;;;5005818;28;19921;-69
2023/11/13 11:24:59;;;;;;;;;;;;;;;;;;5004653;28;19929;-69
2023/11/13 11:27:25;;;;;;;;;;;;;;;;;;5004892;28;20040;-69
2023/11/13 11:29:51;;;;;;;;;;;;;;;;;;5006855;28;20216;-68
2023/11/13 11:32:18;;;;;;;;;;;;;;;;;;5020200;28;20022;-67
2023/11/13 11:34:44;;;;;;;;;;;;;;;;;;5009462;28;20185;-67
2023/11/13 11:37:11;;;;;;;;;;;;;;;;;;5002489;28;19920;-67
2023/11/13 11:39:37;;;;;;;;;;;;;;;;;;5004463;28;19924;-68
2023/11/13 11:42:04;;;;;;;;;;;;;;;;;;5008475;28;19917;-67
2023/11/13 11:44:31;;;;;;;;;;;;;;;;;;5007306;28;19929;-67
2023/11/13 11:46:58;;;;;;;;;;;;;;;;;;5008420;28;19917;-68
2023/11/13 11:49:28;;;;;;;;;;;;;;;;;;5008685;28;19925;-67
2023/11/13 11:51:55;;;;;;;;;;;;;;;;;;5008652;28;19924;-69
2023/11/13 11:54:22;;;;;;;;;;;;;;;;;;4997329;28;20247;-68
2023/11/13 11:56:48;;;;;;;;;;;;;;;;;;5005725;28;20177;-68
2023/11/13 11:59:14;;;;;;;;;;;;;;;;;;5002519;28;20008;-68
2023/11/13 12:01:40;;;;;;;;;;;;;;;;;;5006951;28;20294;-68
2023/11/13 12:04:06;;;;;;;;;;;;;;;;;;5002358;28;20226;-67
2023/11/13 12:06:32;;;;;;;;;;;;;;;;;;5007695;28;20466;-67
2023/11/13 12:08:58;;;;;;;;;;;;;;;;;;5007357;28;19929;-69
2023/11/13 12:11:24;;;;;;;;;;;;;;;;;;5006081;28;19917;-67
2023/11/13 12:13:50;;;;;;;;;;;;;;;;;;5005632;28;20016;-68
2023/11/13 12:16:16;;;;;;;;;;;;;;;;;;4998323;28;20234;-68
2023/11/13 12:18:42;;;;;;;;;;;;;;;;;;5019128;28;20410;-70
2023/11/13 12:21:08;;;;;;;;;;;;;;;;;;4999413;28;19929;-67
2023/11/13 12:23:34;;;;;;;;;;;;;;;;;;5000631;28;19952;-67
2023/11/13 12:26:00;;;;;;;;;;;;;;;;;;5003741;28;20016;-68
2023/11/13 12:28:26;;;;;;;;;;;;;;;;;;5003356;28;19925;-68
2023/11/13 12:30:54;;;;;;;;;;;;;;;;;;5005838;28;20524;-67
2023/11/13 12:33:20;;;;;;;;;;;;;;;;;;5004809;28;19917;-68
2023/11/13 12:35:46;;;;;;;;;;;;;;;;;;5005576;28;20018;-67
2023/11/13 12:38:12;;;;;;;;;;;;;;;;;;5002390;28;19925;-67
2023/11/13 12:40:38;;;;;;;;;;;;;;;;;;5005900;28;20232;-68
2023/11/13 12:43:04;;;;;;;;;;;;;;;;;;5008410;28;20457;-67
2023/11/13 12:45:31;;;;;;;;;;;;;;;;;;5005141;28;20612;-68
2023/11/13 12:47:57;;;;;;;;;;;;;;;;;;5006938;28;20354;-69
2023/11/13 12:50:26;;;;;;;;;;;;;;;;;;5017977;28;20634;-68
2023/11/13 12:52:53;;;;;;;;;;;;;;;;;;5002305;28;20181;-69
2023/11/13 12:55:19;;;;;;;;;;;;;;;;;;5001497;28;20132;-67
2023/11/13 12:57:45;;;;;;;;;;;;;;;;;;5009076;28;19978;-67
2023/11/13 13:00:15;;;;;;;;;;;;;;;;;;5004623;28;19921;-67
2023/11/13 13:02:43;;;;;;;;;;;;;;;;;;5006989;28;20334;-68
2023/11/13 13:05:11;;;;;;;;;;;;;;;;;;5003271;28;20398;-68
2023/11/13 13:07:37;;;;;;;;;;;;;;;;;;4999274;28;19917;-68
2023/11/13 13:10:03;;;;;;;;;;;;;;;;;;5001415;28;20393;-67
2023/11/13 13:12:31;;;;;;;;;;;;;;;;;;5004514;28;19982;-67
2023/11/13 13:14:57;;;;;;;;;;;;;;;;;;5005819;28;19917;-67
2023/11/13 13:17:26;;;;;;;;;;;;;;;;;;5003749;28;20003;-67
2023/11/13 13:19:56;;;;;;;;;;;;;;;;;;5000974;28;20533;-67
2023/11/13 13:22:23;;;;;;;;;;;;;;;;;;5006067;28;19974;-68
2023/11/13 13:24:49;;;;;;;;;;;;;;;;;;5005435;28;20243;-70
2023/11/13 13:27:15;;;;;;;;;;;;;;;;;;5000463;28;20313;-67
2023/11/13 13:29:41;;;;;;;;;;;;;;;;;;5003289;28;19967;-68
2023/11/13 13:32:07;;;;;;;;;;;;;;;;;;5003670;28;20051;-67
2023/11/13 13:34:33;;;;;;;;;;;;;;;;;;4998283;28;20124;-67
2023/11/13 13:36:59;;;;;;;;;;;;;;;;;;5016495;28;19924;-67
2023/11/13 13:39:25;;;;;;;;;;;;;;;;;;5001562;28;19917;-67
2023/11/13 13:41:51;;;;;;;;;;;;;;;;;;5017053;28;19928;-69
2023/11/13 13:44:17;;;;;;;;;;;;;;;;;;5002133;28;19944;-69
2023/11/13 13:46:43;;;;;;;;;;;;;;;;;;5007959;28;20189;-68
2023/11/13 13:49:09;;;;;;;;;;;;;;;;;;5002604;28;19928;-69
2023/11/13 13:51:37;;;;;;;;;;;;;;;;;;5004602;28;19921;-67
2023/11/13 13:54:06;;;;;;;;;;;;;;;;;;4999221;28;20267;-67
2023/11/13 13:56:33;;;;;;;;;;;;;;;;;;5004960;28;20335;-68
2023/11/13 13:58:58;;;;;;;;;;;;;;;;;;5002960;28;19917;-67
2023/11/13 14:01:26;;;;;;;;;;;;;;;;;;5002352;28;20452;-69
2023/11/13 14:03:54;;;;;;;;;;;;;;;;;;5006756;28;20544;-69
2023/11/13 14:06:21;;;;;;;;;;;;;;;;;;5002558;28;19921;-69
2023/11/13 14:08:48;;;;;;;;;;;;;;;;;;5006906;28;20043;-68
2023/11/13 14:11:14;;;;;;;;;;;;;;;;;;5018146;28;20002;-68
2023/11/13 14:13:40;;;;;;;;;;;;;;;;;;5006907;28;19917;-68
2023/11/13 14:16:07;;;;;;;;;;;;;;;;;;5008261;28;20381;-67
2023/11/13 14:18:33;;;;;;;;;;;;;;;;;;5000880;28;19917;-67
2023/11/13 14:20:59;;;;;;;;;;;;;;;;;;5012686;28;19985;-67
2023/11/13 14:23:26;;;;;;;;;;;;;;;;;;5007267;28;19923;-67
2023/11/13 14:25:54;;;;;;;;;;;;;;;;;;5006254;28;20006;-69
2023/11/13 14:28:20;;;;;;;;;;;;;;;;;;5000341;28;20213;-67
2023/11/13 14:30:46;;;;;;;;;;;;;;;;;;4999907;28;20400;-67
2023/11/13 14:33:11;;;;;;;;;;;;;;;;;;5000154;28;20234;-68
2023/11/13 14:35:37;;;;;;;;;;;;;;;;;;5005567;28;20003;-67
2023/11/13 14:38:03;;;;;;;;;;;;;;;;;;5001612;28;20087;-69
2023/11/13 14:40:30;;;;;;;;;;;;;;;;;;5002038;28;21450;-68
2023/11/13 14:42:56;;;;;;;;;;;;;;;;;;5005072;28;20634;-67
2023/11/13 14:45:22;;;;;;;;;;;;;;;;;;5002416;28;19957;-68
2023/11/13 14:47:48;;;;;;;;;;;;;;;;;;5011776;28;19921;-68
2023/11/13 14:50:18;;;;;;;;;;;;;;;;;;5005441;28;19929;-68
2023/11/13 14:52:45;;;;;;;;;;;;;;;;;;5007028;28;19944;-68
2023/11/13 14:55:11;;;;;;;;;;;;;;;;;;5005082;28;19921;-67
2023/11/13 14:57:37;;;;;;;;;;;;;;;;;;5010736;28;19971;-67
2023/11/13 15:00:05;;;;;;;;;;;;;;;;;;5003771;28;20278;-67
2023/11/13 15:02:31;;;;;;;;;;;;;;;;;;5003906;28;20095;-67
2023/11/13 15:04:57;;;;;;;;;;;;;;;;;;5011413;28;20386;-68
2023/11/13 15:07:23;;;;;;;;;;;;;;;;;;5008790;28;20373;-69
2023/11/13 15:09:49;;;;;;;;;;;;;;;;;;5008996;28;19916;-67
2023/11/13 15:12:15;;;;;;;;;;;;;;;;;;5005298;28;20504;-67
2023/11/13 15:14:41;;;;;;;;;;;;;;;;;;5009008;28;19917;-68
2023/11/13 15:17:09;;;;;;;;;;;;;;;;;;5007970;28;19991;-68
2023/11/13 15:19:35;;;;;;;;;;;;;;;;;;5007666;28;19917;-69
2023/11/13 15:22:01;;;;;;;;;;;;;;;;;;5004642;28;19921;-67
2023/11/13 15:24:27;;;;;;;;;;;;;;;;;;5007655;28;20268;-67
2023/11/13 15:26:54;;;;;;;;;;;;;;;;;;5005308;28;19921;-69
2023/11/13 15:29:21;;;;;;;;;;;;;;;;;;5006688;28;19949;-68
2023/11/13 15:31:46;;;;;;;;;;;;;;;;;;5007217;28;19921;-67
2023/11/13 15:34:12;;;;;;;;;;;;;;;;;;5019508;28;20608;-70
2023/11/13 15:36:38;;;;;;;;;;;;;;;;;;5023350;28;20503;-67
2023/11/13 15:39:06;;;;;;;;;;;;;;;;;;5025342;28;20442;-68
2023/11/13 15:41:32;;;;;;;;;;;;;;;;;;5004178;28;19921;-68
2023/11/13 15:43:58;;;;;;;;;;;;;;;;;;5010583;28;19944;-67
2023/11/13 15:46:26;;;;;;;;;;;;;;;;;;5005520;28;20057;-68
2023/11/13 15:48:52;;;;;;;;;;;;;;;;;;5007206;28;19917;-69
2023/11/13 15:51:18;;;;;;;;;;;;;;;;;;5004565;28;19948;-69
2023/11/13 15:53:45;;;;;;;;;;;;;;;;;;5007168;28;20394;-68
2023/11/13 15:56:11;;;;;;;;;;;;;;;;;;5004533;28;20496;-69
2023/11/13 15:58:37;;;;;;;;;;;;;;;;;;5012857;28;20441;-69
2023/11/13 16:01:07;;;;;;;;;;;;;;;;;;5015703;28;19925;-68
2023/11/13 16:03:33;;;;;;;;;;;;;;;;;;5002701;28;19917;-68
2023/11/13 16:06:03;;;;;;;;;;;;;;;;;;5012309;28;19913;-68
2023/11/13 16:08:29;;;;;;;;;;;;;;;;;;5002829;28;20046;-67
2023/11/13 16:10:55;;;;;;;;;;;;;;;;;;5009813;28;20460;-68
2023/11/13 16:13:21;;;;;;;;;;;;;;;;;;5007473;28;20255;-68
2023/11/13 16:15:47;;;;;;;;;;;;;;;;;;5007393;28;19928;-67
2023/11/13 16:18:13;;;;;;;;;;;;;;;;;;5006688;28;19928;-69
2023/11/13 16:20:39;;;;;;;;;;;;;;;;;;5008171;28;19940;-69
2023/11/13 16:23:06;;;;;;;;;;;;;;;;;;5006949;28;19917;-69
2023/11/13 16:25:32;;;;;;;;;;;;;;;;;;5008986;28;20286;-68
2023/11/13 16:27:58;;;;;;;;;;;;;;;;;;5009048;28;19924;-69
2023/11/13 16:30:30;;;;;;;;;;;;;;;;;;5007457;28;20407;-68
2023/11/13 16:32:56;;;;;;;;;;;;;;;;;;5009108;28;20452;-68
2023/11/13 16:35:22;;;;;;;;;;;;;;;;;;5006910;28;20242;-67
2023/11/13 16:37:49;;;;;;;;;;;;;;;;;;5009749;28;19924;-68
2023/11/13 16:40:15;;;;;;;;;;;;;;;;;;5008998;28;20026;-70